Time;durP1;ratioP1;P1;durP2;ratioP2;P2;SDS_P1;SDS_P2;PMS_P1;PMS_P2;Temp;Humidity;BMP_temperature;BMP_pressure;BME280_temperature;BME280_humidity;BME280_pressure;Samples;Min_cycle;Max_cycle;Signal;HPM_P1;HPM_P2
2022/10/29 00:01:44;;;;;;;158.98;18.17;;;12.60;99.90;;;;;;5155582;27;20035;-63
2022/10/29 00:04:10;;;;;;;137.75;15.65;;;12.50;99.90;;;;;;5155535;27;20047;-63
2022/10/29 00:06:36;;;;;;;72.18;13.98;;;12.50;99.90;;;;;;5155498;27;20137;-63
2022/10/29 00:09:02;;;;;;;119.82;15.20;;;12.30;99.90;;;;;;5155257;27;20058;-63
2022/10/29 00:11:28;;;;;;;106.57;14.15;;;12.60;99.90;;;;;;5155287;27;20034;-63
2022/10/29 00:13:59;;;;;;;85.30;12.93;;;12.30;99.90;;;;;;5137048;27;20098;-64
2022/10/29 00:16:28;;;;;;;65.93;11.73;;;12.20;99.90;;;;;;5155034;27;20130;-63
2022/10/29 00:18:55;;;;;;;72.55;12.07;;;12.70;99.90;;;;;;5155200;27;20053;-63
2022/10/29 00:21:23;;;;;;;22.95;9.70;;;12.20;99.90;;;;;;5155223;27;20054;-63
2022/10/29 00:23:50;;;;;;;47.08;9.93;;;12.50;99.90;;;;;;5154900;27;20042;-64
2022/10/29 00:26:17;;;;;;;16.17;8.73;;;12.00;99.90;;;;;;5155139;27;20051;-64
2022/10/29 00:28:44;;;;;;;57.55;6.63;;;12.10;99.90;;;;;;5155091;27;20043;-64
2022/10/29 00:31:17;;;;;;;142.60;10.57;;;12.20;99.90;;;;;;5154986;27;20074;-64
2022/10/29 00:33:44;;;;;;;91.80;9.90;;;11.60;99.90;;;;;;5154643;27;20388;-63
2022/10/29 00:36:13;;;;;;;71.43;11.25;;;11.90;99.90;;;;;;5154661;27;20043;-63
2022/10/29 00:38:39;;;;;;;46.00;10.55;;;11.90;99.90;;;;;;5154847;27;20038;-64
2022/10/29 00:41:06;;;;;;;144.45;13.60;;;12.10;99.90;;;;;;5154829;27;20045;-63
2022/10/29 00:43:33;;;;;;;160.20;15.68;;;11.90;99.90;;;;;;5154811;27;20137;-66
2022/10/29 00:46:03;;;;;;;187.48;15.73;;;12.40;99.90;;;;;;5154779;27;20054;-63
2022/10/29 00:48:32;;;;;;;77.05;12.38;;;12.00;99.90;;;;;;5155030;27;20035;-64
2022/10/29 00:51:01;;;;;;;107.63;12.70;;;12.00;99.90;;;;;;5154437;27;20038;-64
2022/10/29 00:53:30;;;;;;;216.18;15.85;;;12.10;99.90;;;;;;5154588;27;20051;-65
2022/10/29 00:55:58;;;;;;;190.65;16.17;;;12.30;99.90;;;;;;5154662;27;20051;-63
2022/10/29 00:58:24;;;;;;;221.10;19.20;;;12.30;99.90;;;;;;5154325;27;20513;-64
2022/10/29 01:00:50;;;;;;;98.65;13.38;;;11.80;99.90;;;;;;5154582;27;20043;-64
2022/10/29 01:03:15;;;;;;;84.15;12.88;;;12.00;99.90;;;;;;5154535;27;20046;-63
2022/10/29 01:05:43;;;;;;;115.95;14.20;;;12.10;99.90;;;;;;5154239;27;20095;-63
2022/10/29 01:08:10;;;;;;;120.20;14.35;;;12.40;99.90;;;;;;5154544;27;20043;-63
2022/10/29 01:10:44;;;;;;;320.42;23.88;;;12.10;99.90;;;;;;5154413;27;20130;-63
2022/10/29 01:13:44;;;;;;;65.88;13.23;;;12.00;99.90;;;;;;5154364;27;20034;-63
2022/10/29 01:16:29;;;;;;;109.93;13.90;;;12.20;99.90;;;;;;5135904;27;20047;-63
2022/10/29 01:19:10;;;;;;;173.20;16.00;;;12.10;99.90;;;;;;5154095;27;20402;-64
2022/10/29 01:21:44;;;;;;;87.32;14.00;;;12.30;99.90;;;;;;5153803;27;20471;-64
2022/10/29 01:24:34;;;;;;;148.18;14.23;;;12.10;99.90;;;;;;5154365;27;20034;-64
2022/10/29 01:27:05;;;;;;;199.02;16.40;;;12.20;99.90;;;;;;5154443;27;20065;-64
2022/10/29 01:30:06;;;;;;;119.22;13.75;;;12.20;99.90;;;;;;5158619;27;20046;-64
2022/10/29 01:33:22;;;;;;;150.70;14.10;;;11.90;99.90;;;;;;5158144;27;20501;-64
2022/10/29 01:36:11;;;;;;;134.75;13.38;;;12.10;99.90;;;;;;5101724;27;20410;-64
2022/10/29 01:39:05;;;;;;;141.40;14.43;;;11.90;99.90;;;;;;5157737;27;20054;-64
2022/10/29 01:41:46;;;;;;;216.40;18.13;;;11.80;99.90;;;;;;5158339;27;20038;-64
2022/10/29 01:44:20;;;;;;;167.93;16.23;;;12.10;99.90;;;;;;5158331;27;20501;-66
2022/10/29 01:46:53;;;;;;;134.63;14.88;;;12.40;99.90;;;;;;5158232;27;20054;-64
2022/10/29 01:49:33;;;;;;;147.30;15.07;;;12.40;99.90;;;;;;5139457;27;20042;-64
2022/10/29 01:52:02;;;;;;;107.95;14.30;;;12.50;99.90;;;;;;5158148;27;20043;-64
2022/10/29 01:54:27;;;;;;;74.25;12.80;;;12.30;99.90;;;;;;5158104;27;20135;-67
2022/10/29 01:56:57;;;;;;;136.38;15.75;;;12.70;99.90;;;;;;5158046;27;20084;-65
2022/10/29 01:59:28;;;;;;;123.63;15.02;;;12.30;99.90;;;;;;5158058;27;20125;-64
2022/10/29 02:02:17;;;;;;;139.40;15.55;;;12.60;99.90;;;;;;5158026;27;20042;-64
2022/10/29 02:05:08;;;;;;;69.25;13.15;;;12.60;99.90;;;;;;5157638;27;20054;-65
2022/10/29 02:07:45;;;;;;;80.53;12.98;;;12.40;99.90;;;;;;5157898;27;20085;-64
2022/10/29 02:10:32;;;;;;;79.47;13.38;;;12.30;99.90;;;;;;5157881;27;20121;-64
2022/10/29 02:12:59;;;;;;;87.38;14.52;;;12.10;99.90;;;;;;5157698;27;20046;-65
2022/10/29 02:15:34;;;;;;;52.83;13.05;;;11.90;99.90;;;;;;5157686;27;20074;-64
2022/10/29 02:18:02;;;;;;;57.58;12.63;;;11.90;99.90;;;;;;5157444;27;20054;-63
2022/10/29 02:20:28;;;;;;;46.85;12.65;;;12.10;99.90;;;;;;5157628;27;20094;-64
2022/10/29 02:22:54;;;;;;;50.35;12.65;;;12.50;99.90;;;;;;5157230;27;20046;-64
2022/10/29 02:25:20;;;;;;;44.58;12.35;;;12.20;99.90;;;;;;5157481;27;20043;-64
2022/10/29 02:27:46;;;;;;;40.10;12.88;;;12.30;99.90;;;;;;5157461;27;20091;-64
2022/10/29 02:30:11;;;;;;;65.78;13.90;;;12.10;99.90;;;;;;5157434;27;20087;-64
2022/10/29 02:32:37;;;;;;;91.57;15.80;;;12.40;99.90;;;;;;5157034;27;20039;-66
2022/10/29 02:35:03;;;;;;;81.15;15.07;;;12.00;99.90;;;;;;5157471;27;20390;-64
2022/10/29 02:37:29;;;;;;;96.22;16.17;;;12.10;99.90;;;;;;5157308;27;20051;-64
2022/10/29 02:39:55;;;;;;;;;;;12.00;99.90;;;;;;5157781;27;20147;-64
2022/10/29 02:42:21;;;;;;;268.50;20.77;;;12.00;99.90;;;;;;5157207;27;19923;-64
2022/10/29 02:44:46;;;;;;;184.45;18.27;;;12.70;99.90;;;;;;5157111;27;20046;-64
2022/10/29 02:47:12;;;;;;;144.32;16.77;;;12.40;99.90;;;;;;5156838;27;20082;-64
2022/10/29 02:49:38;;;;;;;195.05;18.58;;;12.20;99.90;;;;;;5157062;27;20435;-65
2022/10/29 02:52:04;;;;;;;157.57;16.42;;;12.50;99.90;;;;;;5156626;27;20035;-64
2022/10/29 02:54:30;;;;;;;101.05;17.02;;;11.90;99.90;;;;;;5157017;27;20118;-64
2022/10/29 02:56:55;;;;;;;99.40;16.27;;;12.30;99.90;;;;;;5157019;27;20039;-64
2022/10/29 02:59:21;;;;;;;81.93;15.68;;;12.10;99.90;;;;;;5156875;27;20039;-64
2022/10/29 03:01:47;;;;;;;87.45;17.50;;;12.60;99.90;;;;;;5138333;27;20054;-64
2022/10/29 03:04:13;;;;;;;90.13;16.35;;;12.30;99.90;;;;;;5156761;27;20084;-64
2022/10/29 03:06:38;;;;;;;82.72;16.20;;;12.10;99.90;;;;;;5156704;27;20062;-64
2022/10/29 03:09:04;;;;;;;84.63;16.23;;;12.10;99.90;;;;;;5156644;27;20043;-64
2022/10/29 03:11:30;;;;;;;98.22;15.63;;;12.00;99.90;;;;;;5156574;27;20035;-64
2022/10/29 03:13:56;;;;;;;133.48;17.40;;;11.70;99.90;;;;;;5156525;27;20050;-64
2022/10/29 03:16:22;;;;;;;100.47;15.75;;;12.00;99.90;;;;;;5156273;27;20139;-64
2022/10/29 03:18:47;;;;;;;91.82;16.20;;;11.90;99.90;;;;;;5156185;27;20122;-64
2022/10/29 03:21:13;;;;;;;116.72;17.73;;;12.10;99.90;;;;;;5156445;27;20046;-63
2022/10/29 03:23:38;;;;;;;111.53;16.25;;;12.40;99.90;;;;;;5156466;27;20039;-64
2022/10/29 03:26:04;;;;;;;145.50;17.73;;;11.70;99.90;;;;;;5156354;27;20078;-64
2022/10/29 03:28:30;;;;;;;105.95;14.95;;;12.10;99.90;;;;;;5156269;27;20443;-63
2022/10/29 03:30:56;;;;;;;95.88;15.88;;;12.30;99.90;;;;;;5155949;27;20126;-64
2022/10/29 03:33:24;;;;;;;93.85;15.15;;;11.90;99.90;;;;;;5155994;27;20058;-63
2022/10/29 03:35:58;;;;;;;94.10;15.15;;;11.80;99.90;;;;;;5156211;27;20129;-64
2022/10/29 03:38:24;;;;;;;107.18;15.48;;;12.20;99.90;;;;;;5156160;27;20042;-65
2022/10/29 03:40:50;;;;;;;97.03;15.38;;;12.00;99.90;;;;;;5156060;27;20039;-64
2022/10/29 03:43:16;;;;;;;123.30;14.43;;;12.30;99.90;;;;;;5156014;27;20466;-64
2022/10/29 03:45:41;;;;;;;104.40;16.05;;;12.70;99.90;;;;;;5155699;27;20107;-64
2022/10/29 03:48:07;;;;;;;116.25;16.27;;;12.00;99.90;;;;;;5137385;27;20045;-64
2022/10/29 03:50:32;;;;;;;133.68;15.57;;;12.30;99.90;;;;;;5155128;27;20053;-64
2022/10/29 03:52:58;;;;;;;169.23;16.77;;;11.90;99.90;;;;;;5155719;27;20035;-64
2022/10/29 03:55:24;;;;;;;77.15;12.77;;;12.30;99.90;;;;;;5156073;27;20050;-65
2022/10/29 03:57:49;;;;;;;126.28;14.90;;;12.10;99.90;;;;;;5155705;27;20050;-64
2022/10/29 04:00:15;;;;;;;177.63;16.88;;;12.20;99.90;;;;;;5155401;27;20386;-63
2022/10/29 04:02:41;;;;;;;187.55;18.83;;;12.40;99.90;;;;;;5155514;27;20038;-64
2022/10/29 04:05:07;;;;;;;134.18;15.50;;;12.10;99.90;;;;;;5155550;27;20125;-64
2022/10/29 04:07:33;;;;;;;145.88;16.10;;;11.80;99.90;;;;;;5155528;27;20038;-64
2022/10/29 04:09:58;;;;;;;111.72;14.35;;;12.00;99.90;;;;;;5155468;27;20053;-63
2022/10/29 04:12:24;;;;;;;132.02;14.30;;;12.20;99.90;;;;;;5155343;27;20039;-64
2022/10/29 04:14:50;;;;;;;169.93;14.75;;;12.20;99.90;;;;;;5154969;27;20047;-64
2022/10/29 04:17:15;;;;;;;152.10;14.25;;;12.40;99.90;;;;;;5155322;27;20063;-64
2022/10/29 04:19:41;;;;;;;86.70;12.98;;;11.90;99.90;;;;;;5155313;27;20394;-63
2022/10/29 04:22:07;;;;;;;68.97;12.15;;;11.90;99.90;;;;;;5155193;27;20038;-64
2022/10/29 04:24:32;;;;;;;99.68;12.75;;;12.00;99.90;;;;;;5155217;27;20466;-64
2022/10/29 04:26:58;;;;;;;111.50;13.68;;;11.70;99.90;;;;;;5155004;27;20099;-64
2022/10/29 04:29:24;;;;;;;78.25;11.98;;;12.00;99.90;;;;;;5155129;27;20057;-64
2022/10/29 04:31:50;;;;;;;63.90;10.93;;;12.50;99.90;;;;;;5155008;27;20038;-64
2022/10/29 04:34:15;;;;;;;82.63;11.77;;;11.90;99.90;;;;;;5154980;27;20387;-64
2022/10/29 04:36:41;;;;;;;125.30;13.52;;;12.00;99.90;;;;;;5154975;27;20129;-64
2022/10/29 04:39:07;;;;;;;99.47;13.45;;;12.00;99.90;;;;;;5154921;27;20046;-64
2022/10/29 04:41:33;;;;;;;63.92;11.77;;;11.80;99.90;;;;;;5154917;27;20051;-64
2022/10/29 04:44:00;;;;;;;65.35;11.07;;;12.00;99.90;;;;;;5154583;27;20145;-64
2022/10/29 04:46:26;;;;;;;118.75;13.05;;;11.80;99.90;;;;;;5154823;27;20048;-64
2022/10/29 04:48:51;;;;;;;55.70;11.00;;;12.00;99.90;;;;;;5154729;27;20471;-64
2022/10/29 04:51:23;;;;;;;74.00;12.13;;;12.50;99.90;;;;;;5154744;27;20050;-64
2022/10/29 04:53:49;;;;;;;105.10;12.52;;;11.60;99.90;;;;;;5154734;27;20045;-64
2022/10/29 04:56:15;;;;;;;107.53;13.07;;;11.80;99.90;;;;;;5154669;27;20043;-63
2022/10/29 04:58:41;;;;;;;65.18;12.05;;;12.30;99.90;;;;;;5154281;27;20046;-64
2022/10/29 05:01:07;;;;;;;72.13;11.02;;;12.20;99.90;;;;;;5154434;27;20047;-63
2022/10/29 05:03:33;;;;;;;79.35;11.70;;;11.70;99.90;;;;;;5153714;27;20046;-64
2022/10/29 05:06:02;;;;;;;90.93;12.05;;;12.00;99.90;;;;;;5154256;27;20482;-64
2022/10/29 05:08:28;;;;;;;93.00;12.38;;;12.00;99.90;;;;;;5154485;27;20047;-64
2022/10/29 05:10:54;;;;;;;97.50;13.70;;;12.00;99.90;;;;;;5154481;27;20046;-63
2022/10/29 05:13:19;;;;;;;88.60;11.40;;;11.90;99.90;;;;;;5154155;27;20393;-63
2022/10/29 05:15:51;;;;;;;129.32;13.57;;;12.10;99.90;;;;;;5154441;27;20042;-64
2022/10/29 05:18:17;;;;;;;91.57;13.27;;;11.90;99.90;;;;;;5135881;27;20050;-64
2022/10/29 05:20:43;;;;;;;64.38;11.60;;;12.10;99.90;;;;;;5154382;27;20049;-63
2022/10/29 05:23:10;;;;;;;82.53;12.73;;;12.00;99.90;;;;;;5154042;27;20121;-63
2022/10/29 05:25:37;;;;;;;140.57;15.77;;;12.00;99.90;;;;;;5154339;27;20042;-64
2022/10/29 05:28:06;;;;;;;143.50;14.75;;;12.00;99.90;;;;;;5135457;27;20402;-63
2022/10/29 05:30:33;;;;;;;128.15;14.25;;;12.20;99.90;;;;;;5154273;27;20045;-64
2022/10/29 05:32:59;;;;;;;128.13;15.07;;;12.40;99.90;;;;;;5154038;27;20121;-64
2022/10/29 05:35:25;;;;;;;142.15;14.82;;;12.20;99.90;;;;;;5154248;27;20093;-64
2022/10/29 05:37:55;;;;;;;140.70;14.95;;;12.60;99.90;;;;;;5153940;27;20051;-64
2022/10/29 05:40:21;;;;;;;110.85;13.13;;;12.70;99.90;;;;;;5154205;27;20047;-64
2022/10/29 05:42:47;;;;;;;110.65;12.68;;;12.30;99.90;;;;;;5153925;27;20401;-64
2022/10/29 05:45:14;;;;;;;158.13;14.45;;;12.30;99.90;;;;;;5154178;27;20039;-64
2022/10/29 05:47:39;;;;;;;;;;;12.30;99.90;;;;;;5154605;27;20050;-64
2022/10/29 05:50:05;;;;;;;85.38;9.48;;;12.20;99.90;;;;;;5154076;27;19923;-64
2022/10/29 05:52:31;;;;;;;84.53;10.57;;;12.40;99.90;;;;;;5154069;27;20134;-64
2022/10/29 05:54:57;;;;;;;133.30;12.07;;;12.70;99.90;;;;;;5154056;27;20086;-64
2022/10/29 05:57:22;;;;;;;98.40;13.60;;;13.10;99.90;;;;;;5153782;27;20051;-64
2022/10/29 05:59:48;;;;;;;101.22;11.13;;;12.50;99.90;;;;;;5154039;27;20554;-63
2022/10/29 06:02:14;;;;;;;85.60;10.43;;;12.60;99.90;;;;;;5153990;27;20038;-64
2022/10/29 06:04:39;;;;;;;149.32;12.35;;;12.60;99.90;;;;;;5153698;27;20047;-64
2022/10/29 06:07:05;;;;;;;110.10;12.35;;;12.10;99.90;;;;;;5153961;27;20054;-63
2022/10/29 06:09:31;;;;;;;151.63;12.82;;;12.40;99.90;;;;;;5153957;27;20074;-64
2022/10/29 06:11:56;;;;;;;83.00;12.10;;;12.30;99.90;;;;;;5154201;27;20034;-64
2022/10/29 06:14:22;;;;;;;152.82;15.50;;;12.60;99.90;;;;;;5156199;27;20043;-63
2022/10/29 06:16:48;;;;;;;228.43;15.68;;;12.60;99.90;;;;;;5157700;27;20490;-63
2022/10/29 06:19:14;;;;;;;163.38;15.30;;;12.60;99.90;;;;;;5157622;27;20106;-64
2022/10/29 06:21:39;;;;;;;118.35;15.32;;;12.60;99.90;;;;;;5157640;27;20078;-64
2022/10/29 06:24:05;;;;;;;139.95;14.05;;;12.60;99.90;;;;;;5157273;27;20074;-64
2022/10/29 06:26:32;;;;;;;141.80;12.77;;;12.50;99.90;;;;;;5157480;27;20073;-64
2022/10/29 06:28:58;;;;;;;277.92;14.30;;;12.50;99.90;;;;;;5157423;27;20053;-64
2022/10/29 06:31:24;;;;;;;200.93;18.42;;;12.40;99.90;;;;;;5157018;27;20482;-63
2022/10/29 06:33:50;;;;;;;261.77;14.85;;;12.40;99.90;;;;;;5157054;27;20061;-64
2022/10/29 06:36:15;;;;;;;226.73;17.00;;;12.40;99.90;;;;;;5157289;27;20058;-63
2022/10/29 06:38:41;;;;;;;234.88;15.20;;;12.20;99.90;;;;;;5156979;27;20099;-65
2022/10/29 06:41:08;;;;;;;289.00;16.67;;;12.70;99.90;;;;;;5138681;27;20050;-64
2022/10/29 06:43:34;;;;;;;332.50;17.27;;;12.40;99.90;;;;;;5138864;27;20047;-63
2022/10/29 06:45:59;;;;;;;300.83;18.10;;;12.40;99.90;;;;;;5156814;27;20052;-63
2022/10/29 06:48:25;;;;;;;256.80;17.40;;;12.60;99.90;;;;;;5151383;27;20045;-64
2022/10/29 06:50:51;;;;;;;371.27;23.92;;;12.50;99.90;;;;;;5156161;27;20042;-65
2022/10/29 06:53:17;;;;;;;225.15;22.60;;;12.60;99.90;;;;;;5155868;27;20941;-64
2022/10/29 06:55:44;;;;;;;275.30;20.08;;;12.60;99.90;;;;;;5156407;27;20043;-64
2022/10/29 06:58:14;;;;;;;141.93;15.10;;;12.10;99.90;;;;;;5156143;27;20149;-64
2022/10/29 07:00:41;;;;;;;295.50;19.88;;;12.60;99.90;;;;;;5155862;27;20035;-63
2022/10/29 07:03:10;;;;;;;135.98;12.13;;;12.50;99.90;;;;;;5155901;27;20053;-63
2022/10/29 07:05:36;;;;;;;214.82;15.00;;;12.20;99.90;;;;;;5155825;27;20997;-66
2022/10/29 07:08:02;;;;;;;207.82;15.70;;;12.60;99.90;;;;;;5155879;27;20046;-63
2022/10/29 07:10:29;;;;;;;258.23;16.50;;;12.50;99.90;;;;;;5156224;27;20486;-64
2022/10/29 07:12:55;;;;;;;223.93;15.73;;;12.50;99.90;;;;;;5156006;27;20515;-64
2022/10/29 07:15:21;;;;;;;215.68;15.73;;;12.50;99.90;;;;;;5137750;27;20046;-68
2022/10/29 07:18:02;;;;;;;197.48;15.73;;;12.80;99.90;;;;;;5156147;27;20077;-65
2022/10/29 07:20:30;;;;;;;70.70;12.68;;;12.40;99.90;;;;;;5156080;27;20543;-64
2022/10/29 07:22:56;;;;;;;228.43;16.48;;;13.00;99.90;;;;;;5155651;27;20122;-65
2022/10/29 07:25:22;;;;;;;145.55;14.63;;;12.80;99.90;;;;;;5155091;27;20173;-65
2022/10/29 07:27:48;;;;;;;;;;;12.90;99.90;;;;;;5156218;27;20035;-65
2022/10/29 07:30:14;;;;;;;131.60;15.15;;;12.60;99.90;;;;;;5155579;27;19925;-64
2022/10/29 07:32:39;;;;;;;108.93;13.48;;;12.50;99.90;;;;;;5155343;27;20039;-64
2022/10/29 07:35:05;;;;;;;85.28;13.13;;;12.60;99.90;;;;;;5155601;27;20046;-64
2022/10/29 07:37:31;;;;;;;100.25;13.23;;;12.50;99.90;;;;;;5155432;27;20061;-64
2022/10/29 07:39:57;;;;;;;140.88;15.55;;;13.00;99.90;;;;;;5155749;27;20081;-66
2022/10/29 07:42:23;;;;;;;218.00;16.10;;;13.20;99.90;;;;;;5155497;27;20067;-65
2022/10/29 07:44:49;;;;;;;111.35;15.23;;;12.60;99.90;;;;;;5155537;27;20050;-65
2022/10/29 07:47:14;;;;;;;174.35;17.42;;;12.70;99.90;;;;;;5155434;27;20042;-65
2022/10/29 07:49:40;;;;;;;187.20;18.10;;;12.70;99.90;;;;;;5155472;27;20043;-63
2022/10/29 07:52:05;;;;;;;123.55;15.63;;;12.60;99.90;;;;;;5147258;27;20049;-64
2022/10/29 07:54:31;;;;;;;129.30;15.45;;;12.90;99.90;;;;;;5154951;27;20086;-64
2022/10/29 07:56:57;;;;;;;135.77;16.08;;;13.30;99.90;;;;;;5134090;27;20402;-66
2022/10/29 07:59:22;;;;;;;232.52;18.50;;;13.50;99.90;;;;;;5154956;27;20374;-65
2022/10/29 08:01:48;;;;;;;127.40;15.63;;;13.10;99.90;;;;;;5154487;27;20043;-65
2022/10/29 08:04:14;;;;;;;178.88;18.52;;;13.00;99.90;;;;;;5154867;27;20082;-65
2022/10/29 08:06:39;;;;;;;126.47;16.45;;;13.10;99.90;;;;;;5153938;27;20064;-63
2022/10/29 08:09:05;;;;;;;;;;;13.10;99.90;;;;;;5155198;27;20050;-65
2022/10/29 08:11:31;;;;;;;144.32;19.25;;;13.00;99.90;;;;;;5154403;27;19923;-64
2022/10/29 08:13:57;;;;;;;;;;;13.30;99.90;;;;;;5155391;27;20057;-66
2022/10/29 08:16:23;;;;;;;80.78;17.73;;;13.70;99.90;;;;;;5154055;27;19919;-64
2022/10/29 08:18:48;;;;;;;100.55;17.85;;;13.00;99.90;;;;;;5154282;27;20042;-63
2022/10/29 08:21:14;;;;;;;81.28;17.55;;;13.10;99.90;;;;;;5153612;27;20035;-64
2022/10/29 08:23:40;;;;;;;92.18;18.58;;;13.20;99.90;;;;;;5154476;27;20031;-63
2022/10/29 08:26:05;;;;;;;106.88;17.50;;;13.30;99.90;;;;;;5152649;27;20035;-64
2022/10/29 08:28:31;;;;;;;128.25;18.58;;;13.40;99.90;;;;;;5154328;27;20133;-66
2022/10/29 08:30:57;;;;;;;129.90;20.20;;;13.40;99.90;;;;;;5154108;27;20045;-70
2022/10/29 08:33:22;;;;;;;149.38;19.15;;;13.50;99.90;;;;;;5154113;27;20493;-65
2022/10/29 08:35:48;;;;;;;;;;;13.40;99.90;;;;;;5154377;27;20138;-64
2022/10/29 08:38:14;;;;;;;125.13;16.27;;;13.50;99.90;;;;;;5154335;27;19919;-64
2022/10/29 08:40:58;;;;;;;;;;;13.70;99.90;;;;;;5136082;27;20359;-64
2022/10/29 08:43:37;;;;;;;125.60;16.00;;;13.30;99.90;;;;;;5154348;27;20353;-63
2022/10/29 08:46:04;;;;;;;141.23;16.73;;;13.80;99.90;;;;;;5154030;27;20502;-68
2022/10/29 08:48:29;;;;;;;161.18;18.65;;;14.40;99.90;;;;;;5154329;27;20045;-64
2022/10/29 08:51:07;;;;;;;118.90;17.73;;;14.10;99.90;;;;;;5153791;27;20129;-64
2022/10/29 08:53:37;;;;;;;158.98;21.52;;;13.50;99.90;;;;;;5154310;27;20159;-65
2022/10/29 08:56:15;;;;;;;128.63;20.10;;;13.80;99.90;;;;;;5154171;27;20485;-64
2022/10/29 08:58:44;;;;;;;127.28;20.77;;;14.10;99.90;;;;;;5154197;27;20065;-64
2022/10/29 09:01:11;;;;;;;103.72;20.02;;;13.90;99.90;;;;;;5153959;27;20035;-67
2022/10/29 09:03:37;;;;;;;109.18;21.40;;;14.40;99.90;;;;;;5153844;27;20514;-64
2022/10/29 09:06:12;;;;;;;116.40;21.58;;;14.10;99.90;;;;;;5153929;27;20061;-65
2022/10/29 09:09:02;;;;;;;96.45;20.85;;;14.20;99.90;;;;;;5154150;27;20046;-64
2022/10/29 09:11:57;;;;;;;104.90;22.33;;;14.20;99.90;;;;;;5153925;27;20061;-64
2022/10/29 09:14:35;;;;;;;108.10;23.00;;;14.20;99.90;;;;;;5153798;27;20057;-64
2022/10/29 09:17:20;;;;;;;127.95;26.63;;;14.20;99.90;;;;;;5153607;27;20050;-64
2022/10/29 09:19:54;;;;;;;100.40;24.30;;;13.70;99.90;;;;;;5153813;27;20046;-64
2022/10/29 09:22:38;;;;;;;129.68;26.85;;;14.10;99.90;;;;;;5153838;27;20035;-63
2022/10/29 09:25:18;;;;;;;101.20;28.00;;;14.50;99.90;;;;;;5153836;27;20049;-64
2022/10/29 09:27:50;;;;;;;88.75;24.48;;;14.70;99.90;;;;;;5153555;27;20550;-64
2022/10/29 09:30:18;;;;;;;89.18;23.67;;;14.10;99.90;;;;;;5153854;27;20046;-64
2022/10/29 09:32:58;;;;;;;102.35;27.52;;;14.10;99.90;;;;;;5153319;27;20073;-64
2022/10/29 09:35:37;;;;;;;112.43;41.70;;;13.90;99.90;;;;;;5153353;27;20059;-63
2022/10/29 09:38:13;;;;;;;118.20;40.78;;;14.00;99.90;;;;;;5153629;27;20066;-66
2022/10/29 09:40:44;;;;;;;104.95;27.17;;;14.50;99.90;;;;;;5153644;27;20043;-64
2022/10/29 09:43:12;;;;;;;95.35;24.88;;;14.20;99.90;;;;;;5135115;27;20045;-64
2022/10/29 09:45:59;;;;;;;96.22;25.58;;;14.20;99.90;;;;;;5153584;27;20053;-66
2022/10/29 09:48:37;;;;;;;93.65;32.80;;;14.00;99.90;;;;;;5135777;27;20070;-64
2022/10/29 09:51:25;;;;;;;97.05;30.77;;;14.60;99.90;;;;;;5157201;27;20549;-64
2022/10/29 09:53:51;;;;;;;87.07;25.63;;;14.10;99.90;;;;;;5144008;27;20069;-64
2022/10/29 09:56:17;;;;;;;;;;;14.00;99.90;;;;;;5157875;27;20090;-64
2022/10/29 09:58:50;;;;;;;80.65;25.63;;;14.40;99.90;;;;;;5157596;27;19922;-64
2022/10/29 10:01:16;;;;;;;78.13;25.13;;;14.10;99.90;;;;;;5156511;27;20046;-64
2022/10/29 10:03:44;;;;;;;;;;;14.50;99.90;;;;;;5156967;27;20078;-64
2022/10/29 10:06:15;;;;;;;82.38;25.08;;;14.50;99.90;;;;;;5157932;27;19919;-64
2022/10/29 10:09:03;;;;;;;87.85;25.92;;;14.60;99.90;;;;;;5157935;27;20043;-64
2022/10/29 10:11:42;;;;;;;89.95;25.10;;;14.50;99.90;;;;;;5157866;27;20054;-64
2022/10/29 10:14:20;;;;;;;78.60;24.10;;;15.00;99.90;;;;;;5157786;27;20057;-64
2022/10/29 10:16:59;;;;;;;80.78;27.27;;;14.90;99.90;;;;;;5157460;27;20050;-64
2022/10/29 10:19:29;;;;;;;90.30;29.40;;;15.10;99.90;;;;;;5157754;27;20043;-64
2022/10/29 10:22:00;;;;;;;96.10;47.65;;;14.90;99.90;;;;;;5157651;27;20099;-64
2022/10/29 10:24:34;;;;;;;85.80;37.67;;;14.70;99.90;;;;;;5157592;27;20046;-64
2022/10/29 10:27:20;;;;;;;81.70;39.60;;;15.00;99.90;;;;;;5157516;27;20086;-63
2022/10/29 10:30:09;;;;;;;93.72;35.72;;;15.60;99.90;;;;;;5157068;27;20498;-64
2022/10/29 10:32:35;;;;;;;70.60;29.15;;;15.80;99.90;;;;;;5156822;27;20471;-63
2022/10/29 10:35:01;;;;;;;;;;;15.10;99.90;;;;;;5157614;27;20046;-64
2022/10/29 10:37:30;;;;;;;79.30;26.00;;;15.50;99.90;;;;;;5157379;27;20438;-63
2022/10/29 10:40:21;;;;;;;68.75;28.25;;;16.00;99.90;;;;;;5157057;27;20045;-64
2022/10/29 10:42:46;;;;;;;67.30;27.42;;;16.00;99.90;;;;;;5156971;27;20119;-64
2022/10/29 10:45:13;;;;;;;;;;;15.60;99.90;;;;;;5156978;27;20480;-64
2022/10/29 10:47:42;;;;;;;67.43;34.30;;;16.30;99.90;;;;;;5157023;27;19919;-64
2022/10/29 10:50:29;;;;;;;65.10;29.98;;;16.10;99.90;;;;;;5156939;27;20179;-64
2022/10/29 10:52:57;;;;;;;59.45;24.20;;;16.10;99.90;;;;;;5138516;27;20043;-64
2022/10/29 10:55:30;;;;;;;65.68;26.92;;;16.00;99.90;;;;;;5156783;27;20050;-64
2022/10/29 10:58:23;;;;;;;61.55;25.30;;;16.00;99.90;;;;;;5156966;27;20383;-64
2022/10/29 11:01:03;;;;;;;57.03;26.42;;;16.20;99.90;;;;;;5156596;27;20090;-66
2022/10/29 11:03:35;;;;;;;59.65;24.58;;;16.10;99.90;;;;;;5150028;27;20046;-63
2022/10/29 11:06:01;;;;;;;99.22;63.00;;;16.20;99.90;;;;;;5156399;27;20043;-68
2022/10/29 11:08:49;;;;;;;;;;;15.90;99.90;;;;;;5156706;27;20541;-65
2022/10/29 11:11:40;;;;;;;58.47;32.25;;;15.90;99.90;;;;;;5142276;27;19947;-64
2022/10/29 11:14:41;;;;;;;50.67;28.83;;;16.10;99.90;;;;;;5119953;27;20099;-64
2022/10/29 11:17:23;;;;;;;47.20;24.35;;;16.20;99.90;;;;;;5156184;27;20390;-64
2022/10/29 11:19:51;;;;;;;56.17;33.00;;;16.10;99.90;;;;;;5135590;27;20126;-65
2022/10/29 11:22:37;;;;;;;69.13;44.28;;;16.10;99.90;;;;;;5136083;27;20406;-64
2022/10/29 11:25:16;;;;;;;52.65;30.77;;;16.70;99.90;;;;;;5156039;27;20039;-64
2022/10/29 11:27:57;;;;;;;49.45;20.70;;;16.30;99.90;;;;;;5155877;27;20046;-65
2022/10/29 11:30:23;;;;;;;46.45;18.92;;;16.50;99.90;;;;;;5155834;27;20045;-62
2022/10/29 11:33:16;;;;;;;40.67;19.70;;;16.30;99.90;;;;;;5155390;27;20064;-62
2022/10/29 11:36:05;;;;;;;41.75;20.75;;;16.40;99.90;;;;;;5155302;27;20062;-64
2022/10/29 11:38:42;;;;;;;41.70;18.40;;;16.60;99.90;;;;;;5155685;27;20046;-62
2022/10/29 11:41:29;;;;;;;36.47;19.42;;;16.60;99.90;;;;;;5155946;27;20051;-63
2022/10/29 11:43:55;;;;;;;33.35;17.50;;;16.40;99.90;;;;;;5155415;27;20052;-64
2022/10/29 11:46:23;;;;;;;;;;;16.60;99.90;;;;;;5156094;27;20042;-64
2022/10/29 11:48:55;;;;;;;41.05;18.73;;;16.50;99.90;;;;;;5155290;27;20293;-63
2022/10/29 11:51:47;;;;;;;34.42;17.58;;;16.60;99.90;;;;;;5155527;27;20146;-63
2022/10/29 11:54:27;;;;;;;33.33;17.88;;;16.70;99.90;;;;;;5137236;27;20050;-65
2022/10/29 11:57:11;;;;;;;34.63;19.33;;;17.10;99.90;;;;;;5137099;27;20185;-62
2022/10/29 12:00:06;;;;;;;35.63;18.23;;;16.90;99.90;;;;;;5154953;27;20062;-63
2022/10/29 12:02:53;;;;;;;33.05;16.45;;;17.00;99.90;;;;;;5136440;27;20061;-62
2022/10/29 12:05:40;;;;;;;30.67;15.95;;;17.00;99.90;;;;;;5155066;27;20050;-63
2022/10/29 12:08:44;;;;;;;32.25;17.73;;;17.30;99.90;;;;;;5155219;27;20093;-63
2022/10/29 12:11:25;;;;;;;29.98;15.30;;;17.20;99.90;;;;;;5154607;27;20054;-65
2022/10/29 12:14:12;;;;;;;28.42;14.25;;;17.00;99.90;;;;;;5154538;27;20133;-64
2022/10/29 12:16:37;;;;;;;26.75;13.80;;;17.30;99.90;;;;;;5155027;27;20406;-63
2022/10/29 12:19:05;;;;;;;26.77;13.70;;;17.40;99.90;;;;;;5154561;27;20051;-63
2022/10/29 12:21:38;;;;;;;30.25;12.77;;;17.30;99.90;;;;;;5154670;27;20081;-64
2022/10/29 12:24:25;;;;;;;26.90;13.90;;;17.70;99.90;;;;;;5154785;27;20117;-63
2022/10/29 12:26:56;;;;;;;27.35;12.23;;;17.60;99.90;;;;;;5154605;27;20057;-64
2022/10/29 12:29:30;;;;;;;25.35;12.63;;;17.80;99.90;;;;;;5154381;27;20050;-64
2022/10/29 12:32:21;;;;;;;26.75;12.13;;;17.80;99.90;;;;;;5154385;27;20043;-65
2022/10/29 12:35:01;;;;;;;27.35;12.82;;;17.60;99.90;;;;;;5154286;27;20050;-64
2022/10/29 12:37:30;;;;;;;33.60;12.77;;;17.60;99.90;;;;;;5154395;27;20073;-64
2022/10/29 12:40:01;;;;;;;41.08;27.40;;;17.60;99.90;;;;;;5154514;27;20043;-65
2022/10/29 12:42:29;;;;;;;25.48;13.35;;;17.70;99.90;;;;;;5154399;27;20500;-64
2022/10/29 12:45:28;;;;;;;26.13;12.55;;;17.70;99.90;;;;;;5154892;27;20046;-64